sensor_id;sensor_type;location;lat;lon;timestamp;P1;durP1;ratioP1;P2;durP2;ratioP2
44120;SDS011;29783;52.504;13.478;2022-07-29T00:00:12;7.80;;;2.58;;
44120;SDS011;29783;52.504;13.478;2022-07-29T00:02:38;14.77;;;2.67;;
44120;SDS011;29783;52.504;13.478;2022-07-29T00:05:04;6.88;;;2.35;;
44120;SDS011;29783;52.504;13.478;2022-07-29T00:07:30;6.68;;;2.70;;
44120;SDS011;29783;52.504;13.478;2022-07-29T00:09:56;6.03;;;2.80;;
44120;SDS011;29783;52.504;13.478;2022-07-29T00:12:22;5.43;;;2.47;;
44120;SDS011;29783;52.504;13.478;2022-07-29T00:14:49;9.50;;;2.80;;
44120;SDS011;29783;52.504;13.478;2022-07-29T00:17:15;10.65;;;2.97;;
44120;SDS011;29783;52.504;13.478;2022-07-29T00:19:41;7.75;;;3.10;;
44120;SDS011;29783;52.504;13.478;2022-07-29T00:22:06;9.05;;;2.90;;
44120;SDS011;29783;52.504;13.478;2022-07-29T00:24:32;12.25;;;2.72;;
44120;SDS011;29783;52.504;13.478;2022-07-29T00:26:57;10.70;;;2.70;;
44120;SDS011;29783;52.504;13.478;2022-07-29T00:29:23;5.28;;;2.88;;
44120;SDS011;29783;52.504;13.478;2022-07-29T00:31:49;9.07;;;3.08;;
44120;SDS011;29783;52.504;13.478;2022-07-29T00:34:14;9.95;;;3.10;;
44120;SDS011;29783;52.504;13.478;2022-07-29T00:36:58;13.48;;;3.30;;
44120;SDS011;29783;52.504;13.478;2022-07-29T00:39:24;6.35;;;3.03;;
44120;SDS011;29783;52.504;13.478;2022-07-29T00:41:49;12.57;;;3.25;;
44120;SDS011;29783;52.504;13.478;2022-07-29T00:44:15;11.98;;;2.90;;
44120;SDS011;29783;52.504;13.478;2022-07-29T00:46:41;7.60;;;2.92;;
44120;SDS011;29783;52.504;13.478;2022-07-29T00:49:06;12.40;;;3.10;;
44120;SDS011;29783;52.504;13.478;2022-07-29T00:51:34;12.63;;;2.92;;
44120;SDS011;29783;52.504;13.478;2022-07-29T00:54:01;6.60;;;2.78;;
44120;SDS011;29783;52.504;13.478;2022-07-29T00:56:29;9.80;;;3.20;;
44120;SDS011;29783;52.504;13.478;2022-07-29T00:58:56;9.98;;;3.22;;
44120;SDS011;29783;52.504;13.478;2022-07-29T01:01:22;7.32;;;2.78;;
44120;SDS011;29783;52.504;13.478;2022-07-29T01:03:48;7.53;;;3.17;;
44120;SDS011;29783;52.504;13.478;2022-07-29T01:06:14;7.85;;;2.95;;
44120;SDS011;29783;52.504;13.478;2022-07-29T01:08:44;10.43;;;3.38;;
44120;SDS011;29783;52.504;13.478;2022-07-29T01:11:13;9.05;;;3.08;;
44120;SDS011;29783;52.504;13.478;2022-07-29T01:13:41;17.60;;;3.65;;
44120;SDS011;29783;52.504;13.478;2022-07-29T01:16:10;11.27;;;2.95;;
44120;SDS011;29783;52.504;13.478;2022-07-29T01:18:44;9.73;;;2.78;;
44120;SDS011;29783;52.504;13.478;2022-07-29T01:24:11;18.73;;;3.05;;
44120;SDS011;29783;52.504;13.478;2022-07-29T01:32:18;8.63;;;2.42;;
44120;SDS011;29783;52.504;13.478;2022-07-29T01:37:32;6.97;;;3.08;;
44120;SDS011;29783;52.504;13.478;2022-07-29T01:40:29;17.60;;;3.33;;
44120;SDS011;29783;52.504;13.478;2022-07-29T01:43:00;9.95;;;2.50;;
44120;SDS011;29783;52.504;13.478;2022-07-29T01:48:15;5.53;;;2.92;;
44120;SDS011;29783;52.504;13.478;2022-07-29T01:50:47;4.88;;;2.72;;
44120;SDS011;29783;52.504;13.478;2022-07-29T01:53:18;8.27;;;3.13;;
44120;SDS011;29783;52.504;13.478;2022-07-29T01:55:50;9.00;;;2.80;;
44120;SDS011;29783;52.504;13.478;2022-07-29T01:58:17;6.40;;;2.67;;
44120;SDS011;29783;52.504;13.478;2022-07-29T02:00:45;12.90;;;3.08;;
44120;SDS011;29783;52.504;13.478;2022-07-29T02:03:13;8.95;;;2.85;;
44120;SDS011;29783;52.504;13.478;2022-07-29T02:05:42;12.20;;;3.40;;
44120;SDS011;29783;52.504;13.478;2022-07-29T02:08:08;13.63;;;2.83;;
44120;SDS011;29783;52.504;13.478;2022-07-29T02:10:36;13.48;;;2.78;;
44120;SDS011;29783;52.504;13.478;2022-07-29T02:13:04;6.22;;;2.80;;
44120;SDS011;29783;52.504;13.478;2022-07-29T02:15:32;17.85;;;3.15;;
44120;SDS011;29783;52.504;13.478;2022-07-29T02:18:11;8.52;;;2.80;;
44120;SDS011;29783;52.504;13.478;2022-07-29T02:20:44;10.75;;;3.10;;
44120;SDS011;29783;52.504;13.478;2022-07-29T02:23:14;4.35;;;2.45;;
44120;SDS011;29783;52.504;13.478;2022-07-29T02:28:13;5.82;;;2.33;;
44120;SDS011;29783;52.504;13.478;2022-07-29T02:30:40;7.30;;;2.65;;
44120;SDS011;29783;52.504;13.478;2022-07-29T02:33:08;9.77;;;2.53;;
44120;SDS011;29783;52.504;13.478;2022-07-29T02:35:37;5.95;;;2.60;;
44120;SDS011;29783;52.504;13.478;2022-07-29T02:38:05;6.30;;;2.63;;
44120;SDS011;29783;52.504;13.478;2022-07-29T02:40:51;11.00;;;2.63;;
44120;SDS011;29783;52.504;13.478;2022-07-29T02:43:18;10.30;;;2.90;;
44120;SDS011;29783;52.504;13.478;2022-07-29T02:45:45;6.72;;;2.47;;
44120;SDS011;29783;52.504;13.478;2022-07-29T02:48:16;9.77;;;2.85;;
44120;SDS011;29783;52.504;13.478;2022-07-29T02:50:48;11.35;;;2.85;;
44120;SDS011;29783;52.504;13.478;2022-07-29T02:53:20;5.93;;;2.53;;
44120;SDS011;29783;52.504;13.478;2022-07-29T02:55:51;7.43;;;2.42;;
44120;SDS011;29783;52.504;13.478;2022-07-29T02:58:27;14.80;;;2.65;;
44120;SDS011;29783;52.504;13.478;2022-07-29T03:00:56;7.88;;;2.70;;
44120;SDS011;29783;52.504;13.478;2022-07-29T03:03:25;7.50;;;2.67;;
44120;SDS011;29783;52.504;13.478;2022-07-29T03:05:55;9.07;;;3.15;;
44120;SDS011;29783;52.504;13.478;2022-07-29T03:08:22;5.90;;;2.15;;
44120;SDS011;29783;52.504;13.478;2022-07-29T03:10:49;8.07;;;2.40;;
44120;SDS011;29783;52.504;13.478;2022-07-29T03:13:16;5.45;;;2.75;;
44120;SDS011;29783;52.504;13.478;2022-07-29T03:15:43;11.55;;;2.50;;
44120;SDS011;29783;52.504;13.478;2022-07-29T03:18:10;13.02;;;2.92;;
44120;SDS011;29783;52.504;13.478;2022-07-29T03:20:37;4.85;;;2.60;;
44120;SDS011;29783;52.504;13.478;2022-07-29T03:23:03;10.25;;;2.60;;
44120;SDS011;29783;52.504;13.478;2022-07-29T03:25:29;5.68;;;2.90;;
44120;SDS011;29783;52.504;13.478;2022-07-29T03:27:55;13.50;;;2.88;;
44120;SDS011;29783;52.504;13.478;2022-07-29T03:30:21;6.97;;;2.60;;
44120;SDS011;29783;52.504;13.478;2022-07-29T03:32:47;7.22;;;2.30;;
44120;SDS011;29783;52.504;13.478;2022-07-29T03:35:14;6.60;;;2.30;;
44120;SDS011;29783;52.504;13.478;2022-07-29T03:37:41;11.25;;;2.53;;
44120;SDS011;29783;52.504;13.478;2022-07-29T03:40:07;5.47;;;2.55;;
44120;SDS011;29783;52.504;13.478;2022-07-29T03:42:35;10.95;;;2.90;;
44120;SDS011;29783;52.504;13.478;2022-07-29T03:45:08;6.82;;;2.72;;
44120;SDS011;29783;52.504;13.478;2022-07-29T03:47:39;6.32;;;2.60;;
44120;SDS011;29783;52.504;13.478;2022-07-29T03:50:08;5.22;;;2.22;;
44120;SDS011;29783;52.504;13.478;2022-07-29T03:52:36;17.00;;;2.50;;
44120;SDS011;29783;52.504;13.478;2022-07-29T03:55:03;6.68;;;2.38;;
44120;SDS011;29783;52.504;13.478;2022-07-29T03:57:30;10.85;;;2.38;;
44120;SDS011;29783;52.504;13.478;2022-07-29T03:59:56;13.05;;;3.00;;
44120;SDS011;29783;52.504;13.478;2022-07-29T04:02:22;8.82;;;2.88;;
44120;SDS011;29783;52.504;13.478;2022-07-29T04:04:50;7.10;;;2.55;;
44120;SDS011;29783;52.504;13.478;2022-07-29T04:07:16;9.85;;;2.58;;
44120;SDS011;29783;52.504;13.478;2022-07-29T04:09:42;11.05;;;3.28;;
44120;SDS011;29783;52.504;13.478;2022-07-29T04:12:08;4.88;;;2.20;;
44120;SDS011;29783;52.504;13.478;2022-07-29T04:14:34;6.28;;;2.50;;
44120;SDS011;29783;52.504;13.478;2022-07-29T04:17:00;7.95;;;2.53;;
44120;SDS011;29783;52.504;13.478;2022-07-29T04:19:26;11.43;;;2.50;;
44120;SDS011;29783;52.504;13.478;2022-07-29T04:21:52;7.60;;;2.53;;
44120;SDS011;29783;52.504;13.478;2022-07-29T04:24:18;7.55;;;2.83;;
44120;SDS011;29783;52.504;13.478;2022-07-29T04:26:45;11.65;;;3.00;;
44120;SDS011;29783;52.504;13.478;2022-07-29T04:29:11;10.48;;;2.40;;
44120;SDS011;29783;52.504;13.478;2022-07-29T04:31:39;14.50;;;2.45;;
44120;SDS011;29783;52.504;13.478;2022-07-29T04:34:05;13.05;;;2.55;;
44120;SDS011;29783;52.504;13.478;2022-07-29T04:36:30;5.90;;;2.38;;
44120;SDS011;29783;52.504;13.478;2022-07-29T04:38:56;7.65;;;2.55;;
44120;SDS011;29783;52.504;13.478;2022-07-29T04:41:22;8.88;;;2.50;;
44120;SDS011;29783;52.504;13.478;2022-07-29T04:43:48;11.32;;;2.63;;
44120;SDS011;29783;52.504;13.478;2022-07-29T04:46:13;9.93;;;2.55;;
44120;SDS011;29783;52.504;13.478;2022-07-29T04:48:39;15.68;;;2.25;;
44120;SDS011;29783;52.504;13.478;2022-07-29T04:51:04;6.95;;;2.85;;
44120;SDS011;29783;52.504;13.478;2022-07-29T04:53:30;10.00;;;2.42;;
44120;SDS011;29783;52.504;13.478;2022-07-29T04:55:56;12.32;;;2.67;;
44120;SDS011;29783;52.504;13.478;2022-07-29T04:58:21;14.10;;;2.60;;
44120;SDS011;29783;52.504;13.478;2022-07-29T05:00:48;6.13;;;2.40;;
44120;SDS011;29783;52.504;13.478;2022-07-29T05:03:14;14.05;;;2.88;;
44120;SDS011;29783;52.504;13.478;2022-07-29T05:05:40;5.68;;;2.40;;
44120;SDS011;29783;52.504;13.478;2022-07-29T05:08:05;12.88;;;2.47;;
44120;SDS011;29783;52.504;13.478;2022-07-29T05:10:31;8.15;;;2.50;;
44120;SDS011;29783;52.504;13.478;2022-07-29T05:12:57;6.63;;;2.47;;
44120;SDS011;29783;52.504;13.478;2022-07-29T05:15:23;8.80;;;3.03;;
44120;SDS011;29783;52.504;13.478;2022-07-29T05:17:49;4.82;;;2.60;;
44120;SDS011;29783;52.504;13.478;2022-07-29T05:20:14;11.10;;;2.47;;
44120;SDS011;29783;52.504;13.478;2022-07-29T05:22:40;5.63;;;2.50;;
44120;SDS011;29783;52.504;13.478;2022-07-29T05:25:05;7.53;;;2.53;;
44120;SDS011;29783;52.504;13.478;2022-07-29T05:27:31;12.45;;;2.50;;
44120;SDS011;29783;52.504;13.478;2022-07-29T05:29:57;8.25;;;2.60;;
44120;SDS011;29783;52.504;13.478;2022-07-29T05:32:22;7.55;;;2.20;;
44120;SDS011;29783;52.504;13.478;2022-07-29T05:34:48;9.32;;;2.80;;
44120;SDS011;29783;52.504;13.478;2022-07-29T05:37:13;9.05;;;2.80;;
44120;SDS011;29783;52.504;13.478;2022-07-29T05:39:39;5.45;;;2.33;;
44120;SDS011;29783;52.504;13.478;2022-07-29T05:42:11;8.80;;;2.42;;
44120;SDS011;29783;52.504;13.478;2022-07-29T05:44:37;8.55;;;2.63;;
44120;SDS011;29783;52.504;13.478;2022-07-29T05:47:05;13.13;;;2.40;;
44120;SDS011;29783;52.504;13.478;2022-07-29T05:49:31;9.80;;;2.40;;
44120;SDS011;29783;52.504;13.478;2022-07-29T05:51:57;12.05;;;2.90;;
44120;SDS011;29783;52.504;13.478;2022-07-29T05:54:23;17.30;;;2.70;;
44120;SDS011;29783;52.504;13.478;2022-07-29T05:56:49;7.03;;;2.47;;
44120;SDS011;29783;52.504;13.478;2022-07-29T05:59:15;13.45;;;2.33;;
44120;SDS011;29783;52.504;13.478;2022-07-29T06:01:40;10.52;;;2.15;;
44120;SDS011;29783;52.504;13.478;2022-07-29T06:04:06;10.77;;;2.70;;
44120;SDS011;29783;52.504;13.478;2022-07-29T06:06:33;14.60;;;2.38;;
44120;SDS011;29783;52.504;13.478;2022-07-29T06:08:59;7.82;;;2.55;;
44120;SDS011;29783;52.504;13.478;2022-07-29T06:11:25;8.43;;;2.22;;
44120;SDS011;29783;52.504;13.478;2022-07-29T06:13:50;11.35;;;2.17;;
44120;SDS011;29783;52.504;13.478;2022-07-29T06:16:16;10.55;;;2.53;;
44120;SDS011;29783;52.504;13.478;2022-07-29T06:18:41;10.27;;;2.30;;
44120;SDS011;29783;52.504;13.478;2022-07-29T06:21:08;7.43;;;2.20;;
44120;SDS011;29783;52.504;13.478;2022-07-29T06:23:34;5.68;;;2.22;;
44120;SDS011;29783;52.504;13.478;2022-07-29T06:26:01;11.00;;;2.20;;
44120;SDS011;29783;52.504;13.478;2022-07-29T06:28:27;10.88;;;2.50;;
44120;SDS011;29783;52.504;13.478;2022-07-29T06:30:53;9.52;;;2.20;;
44120;SDS011;29783;52.504;13.478;2022-07-29T06:33:18;14.63;;;2.22;;
44120;SDS011;29783;52.504;13.478;2022-07-29T06:35:44;14.32;;;2.22;;
44120;SDS011;29783;52.504;13.478;2022-07-29T06:38:12;5.82;;;2.10;;
44120;SDS011;29783;52.504;13.478;2022-07-29T06:40:42;7.97;;;2.10;;
44120;SDS011;29783;52.504;13.478;2022-07-29T06:43:30;12.48;;;2.33;;
44120;SDS011;29783;52.504;13.478;2022-07-29T06:45:59;6.10;;;2.47;;
44120;SDS011;29783;52.504;13.478;2022-07-29T06:48:26;5.55;;;2.00;;
44120;SDS011;29783;52.504;13.478;2022-07-29T06:50:52;8.43;;;2.50;;
44120;SDS011;29783;52.504;13.478;2022-07-29T06:53:17;5.40;;;2.22;;
44120;SDS011;29783;52.504;13.478;2022-07-29T06:55:43;8.93;;;2.13;;
44120;SDS011;29783;52.504;13.478;2022-07-29T06:58:09;4.38;;;2.05;;
44120;SDS011;29783;52.504;13.478;2022-07-29T07:00:35;11.95;;;2.20;;
44120;SDS011;29783;52.504;13.478;2022-07-29T07:03:01;9.65;;;2.55;;
44120;SDS011;29783;52.504;13.478;2022-07-29T07:05:27;12.35;;;2.35;;
44120;SDS011;29783;52.504;13.478;2022-07-29T07:07:52;5.22;;;2.00;;
44120;SDS011;29783;52.504;13.478;2022-07-29T07:10:18;9.25;;;2.38;;
44120;SDS011;29783;52.504;13.478;2022-07-29T07:12:43;11.82;;;2.20;;
44120;SDS011;29783;52.504;13.478;2022-07-29T07:15:09;9.23;;;2.13;;
44120;SDS011;29783;52.504;13.478;2022-07-29T07:17:35;7.05;;;2.10;;
44120;SDS011;29783;52.504;13.478;2022-07-29T07:20:00;11.55;;;2.30;;
44120;SDS011;29783;52.504;13.478;2022-07-29T07:22:26;5.03;;;1.95;;
44120;SDS011;29783;52.504;13.478;2022-07-29T07:24:51;9.93;;;1.73;;
44120;SDS011;29783;52.504;13.478;2022-07-29T07:27:17;4.30;;;2.20;;
44120;SDS011;29783;52.504;13.478;2022-07-29T07:29:42;10.52;;;2.10;;
44120;SDS011;29783;52.504;13.478;2022-07-29T07:32:08;10.25;;;2.10;;
44120;SDS011;29783;52.504;13.478;2022-07-29T07:34:34;4.13;;;1.80;;
44120;SDS011;29783;52.504;13.478;2022-07-29T07:37:00;6.10;;;2.13;;
44120;SDS011;29783;52.504;13.478;2022-07-29T07:39:25;15.90;;;1.90;;
44120;SDS011;29783;52.504;13.478;2022-07-29T07:41:51;7.45;;;1.73;;
44120;SDS011;29783;52.504;13.478;2022-07-29T07:44:17;8.20;;;2.13;;
44120;SDS011;29783;52.504;13.478;2022-07-29T07:46:42;12.57;;;2.35;;
44120;SDS011;29783;52.504;13.478;2022-07-29T07:49:09;14.13;;;2.00;;
44120;SDS011;29783;52.504;13.478;2022-07-29T07:51:36;6.03;;;1.80;;
44120;SDS011;29783;52.504;13.478;2022-07-29T07:54:01;6.88;;;2.15;;
44120;SDS011;29783;52.504;13.478;2022-07-29T07:56:27;12.07;;;2.22;;
44120;SDS011;29783;52.504;13.478;2022-07-29T07:58:53;9.60;;;2.03;;
44120;SDS011;29783;52.504;13.478;2022-07-29T08:01:18;6.70;;;2.13;;
44120;SDS011;29783;52.504;13.478;2022-07-29T08:03:47;9.15;;;2.05;;
44120;SDS011;29783;52.504;13.478;2022-07-29T08:06:14;5.63;;;1.77;;
44120;SDS011;29783;52.504;13.478;2022-07-29T08:08:40;9.57;;;1.95;;
44120;SDS011;29783;52.504;13.478;2022-07-29T08:11:05;12.23;;;1.90;;
44120;SDS011;29783;52.504;13.478;2022-07-29T08:13:31;5.10;;;1.73;;
44120;SDS011;29783;52.504;13.478;2022-07-29T08:15:57;22.10;;;1.67;;
44120;SDS011;29783;52.504;13.478;2022-07-29T08:18:25;9.00;;;1.90;;
44120;SDS011;29783;52.504;13.478;2022-07-29T08:20:52;6.97;;;1.98;;
44120;SDS011;29783;52.504;13.478;2022-07-29T08:23:18;13.82;;;1.88;;
44120;SDS011;29783;52.504;13.478;2022-07-29T08:25:47;12.25;;;1.75;;
44120;SDS011;29783;52.504;13.478;2022-07-29T08:28:13;11.65;;;2.00;;
44120;SDS011;29783;52.504;13.478;2022-07-29T08:30:39;7.35;;;2.20;;
44120;SDS011;29783;52.504;13.478;2022-07-29T08:33:05;10.43;;;3.00;;
44120;SDS011;29783;52.504;13.478;2022-07-29T08:35:30;8.48;;;1.88;;
44120;SDS011;29783;52.504;13.478;2022-07-29T08:37:56;8.55;;;1.73;;
44120;SDS011;29783;52.504;13.478;2022-07-29T08:40:22;5.60;;;2.03;;
44120;SDS011;29783;52.504;13.478;2022-07-29T08:42:49;13.68;;;2.30;;
44120;SDS011;29783;52.504;13.478;2022-07-29T08:45:15;6.22;;;1.50;;
44120;SDS011;29783;52.504;13.478;2022-07-29T08:47:41;7.53;;;2.00;;
44120;SDS011;29783;52.504;13.478;2022-07-29T08:50:08;9.30;;;1.55;;
44120;SDS011;29783;52.504;13.478;2022-07-29T08:52:39;8.57;;;2.15;;
44120;SDS011;29783;52.504;13.478;2022-07-29T08:55:06;4.75;;;1.73;;
44120;SDS011;29783;52.504;13.478;2022-07-29T08:57:34;10.98;;;1.98;;
44120;SDS011;29783;52.504;13.478;2022-07-29T09:00:01;7.50;;;1.70;;
44120;SDS011;29783;52.504;13.478;2022-07-29T09:02:32;10.18;;;1.92;;
44120;SDS011;29783;52.504;13.478;2022-07-29T09:05:01;8.13;;;1.85;;
44120;SDS011;29783;52.504;13.478;2022-07-29T09:07:27;11.13;;;1.88;;
44120;SDS011;29783;52.504;13.478;2022-07-29T09:09:53;10.35;;;1.88;;
44120;SDS011;29783;52.504;13.478;2022-07-29T09:12:19;6.18;;;1.63;;
44120;SDS011;29783;52.504;13.478;2022-07-29T09:14:47;8.70;;;1.95;;
44120;SDS011;29783;52.504;13.478;2022-07-29T09:17:13;3.97;;;1.60;;
44120;SDS011;29783;52.504;13.478;2022-07-29T09:19:41;5.45;;;1.50;;
44120;SDS011;29783;52.504;13.478;2022-07-29T09:22:07;19.48;;;1.90;;
44120;SDS011;29783;52.504;13.478;2022-07-29T09:27:17;5.25;;;1.48;;
44120;SDS011;29783;52.504;13.478;2022-07-29T09:32:53;4.82;;;1.55;;
44120;SDS011;29783;52.504;13.478;2022-07-29T09:35:25;11.40;;;1.90;;
44120;SDS011;29783;52.504;13.478;2022-07-29T09:37:51;9.57;;;1.92;;
44120;SDS011;29783;52.504;13.478;2022-07-29T09:40:21;9.50;;;1.70;;
44120;SDS011;29783;52.504;13.478;2022-07-29T09:42:50;10.38;;;1.90;;
44120;SDS011;29783;52.504;13.478;2022-07-29T09:45:30;15.07;;;1.67;;
44120;SDS011;29783;52.504;13.478;2022-07-29T09:47:57;13.18;;;1.83;;
44120;SDS011;29783;52.504;13.478;2022-07-29T09:50:40;4.88;;;1.30;;
44120;SDS011;29783;52.504;13.478;2022-07-29T09:53:06;8.82;;;1.45;;
44120;SDS011;29783;52.504;13.478;2022-07-29T09:55:45;4.25;;;1.52;;
44120;SDS011;29783;52.504;13.478;2022-07-29T09:58:20;10.27;;;1.50;;
44120;SDS011;29783;52.504;13.478;2022-07-29T10:00:46;10.68;;;1.55;;
44120;SDS011;29783;52.504;13.478;2022-07-29T10:03:14;16.42;;;1.77;;
44120;SDS011;29783;52.504;13.478;2022-07-29T10:05:41;12.23;;;1.40;;
44120;SDS011;29783;52.504;13.478;2022-07-29T10:08:07;9.13;;;1.65;;
44120;SDS011;29783;52.504;13.478;2022-07-29T10:10:34;10.93;;;1.52;;
44120;SDS011;29783;52.504;13.478;2022-07-29T10:13:03;9.85;;;1.80;;
44120;SDS011;29783;52.504;13.478;2022-07-29T10:15:31;13.07;;;1.60;;
44120;SDS011;29783;52.504;13.478;2022-07-29T10:17:58;10.63;;;1.73;;
44120;SDS011;29783;52.504;13.478;2022-07-29T10:20:25;4.57;;;1.30;;
44120;SDS011;29783;52.504;13.478;2022-07-29T10:22:52;3.30;;;1.33;;
44120;SDS011;29783;52.504;13.478;2022-07-29T10:25:18;4.20;;;1.60;;
44120;SDS011;29783;52.504;13.478;2022-07-29T10:27:45;12.65;;;1.45;;
44120;SDS011;29783;52.504;13.478;2022-07-29T10:30:12;10.48;;;1.42;;
44120;SDS011;29783;52.504;13.478;2022-07-29T10:32:43;7.53;;;1.63;;
44120;SDS011;29783;52.504;13.478;2022-07-29T10:38:13;12.35;;;1.42;;
44120;SDS011;29783;52.504;13.478;2022-07-29T10:43:51;10.50;;;1.40;;
44120;SDS011;29783;52.504;13.478;2022-07-29T10:46:22;6.95;;;1.30;;
44120;SDS011;29783;52.504;13.478;2022-07-29T10:54:16;10.18;;;1.55;;
44120;SDS011;29783;52.504;13.478;2022-07-29T11:04:59;3.72;;;1.40;;
44120;SDS011;29783;52.504;13.478;2022-07-29T11:07:26;7.75;;;1.40;;
44120;SDS011;29783;52.504;13.478;2022-07-29T11:15:04;13.52;;;1.60;;
44120;SDS011;29783;52.504;13.478;2022-07-29T11:20:31;3.08;;;1.45;;
44120;SDS011;29783;52.504;13.478;2022-07-29T11:22:57;7.72;;;1.30;;
44120;SDS011;29783;52.504;13.478;2022-07-29T11:25:23;8.48;;;1.42;;
44120;SDS011;29783;52.504;13.478;2022-07-29T11:27:49;9.00;;;1.55;;
44120;SDS011;29783;52.504;13.478;2022-07-29T11:30:17;12.32;;;1.73;;
44120;SDS011;29783;52.504;13.478;2022-07-29T11:32:43;4.93;;;1.30;;
44120;SDS011;29783;52.504;13.478;2022-07-29T11:37:39;6.20;;;1.50;;
44120;SDS011;29783;52.504;13.478;2022-07-29T11:47:32;11.02;;;2.00;;
44120;SDS011;29783;52.504;13.478;2022-07-29T11:50:13;4.75;;;1.63;;
44120;SDS011;29783;52.504;13.478;2022-07-29T11:52:45;7.28;;;1.60;;
44120;SDS011;29783;52.504;13.478;2022-07-29T11:55:13;12.98;;;2.08;;
44120;SDS011;29783;52.504;13.478;2022-07-29T12:00:21;9.80;;;1.80;;
44120;SDS011;29783;52.504;13.478;2022-07-29T12:02:50;5.57;;;2.00;;
44120;SDS011;29783;52.504;13.478;2022-07-29T12:05:16;7.32;;;1.65;;
44120;SDS011;29783;52.504;13.478;2022-07-29T12:07:42;5.68;;;1.55;;
44120;SDS011;29783;52.504;13.478;2022-07-29T12:10:08;9.05;;;1.60;;
44120;SDS011;29783;52.504;13.478;2022-07-29T12:12:34;9.57;;;2.00;;
44120;SDS011;29783;52.504;13.478;2022-07-29T12:17:39;7.57;;;1.92;;
44120;SDS011;29783;52.504;13.478;2022-07-29T12:20:05;5.82;;;1.80;;
44120;SDS011;29783;52.504;13.478;2022-07-29T12:22:33;3.15;;;1.50;;
44120;SDS011;29783;52.504;13.478;2022-07-29T12:25:05;9.80;;;1.50;;
44120;SDS011;29783;52.504;13.478;2022-07-29T12:27:35;10.10;;;1.90;;
44120;SDS011;29783;52.504;13.478;2022-07-29T12:30:03;4.78;;;1.50;;
44120;SDS011;29783;52.504;13.478;2022-07-29T12:35:06;10.85;;;1.60;;
44120;SDS011;29783;52.504;13.478;2022-07-29T12:37:37;6.53;;;1.40;;
44120;SDS011;29783;52.504;13.478;2022-07-29T12:40:05;5.43;;;1.40;;
44120;SDS011;29783;52.504;13.478;2022-07-29T12:42:32;6.25;;;1.40;;
44120;SDS011;29783;52.504;13.478;2022-07-29T12:44:58;5.00;;;1.50;;
44120;SDS011;29783;52.504;13.478;2022-07-29T12:47:24;3.38;;;1.50;;
44120;SDS011;29783;52.504;13.478;2022-07-29T12:49:50;14.45;;;1.27;;
44120;SDS011;29783;52.504;13.478;2022-07-29T12:52:32;8.63;;;1.30;;
44120;SDS011;29783;52.504;13.478;2022-07-29T12:54:59;2.85;;;1.30;;
44120;SDS011;29783;52.504;13.478;2022-07-29T12:57:25;4.22;;;1.30;;
44120;SDS011;29783;52.504;13.478;2022-07-29T13:00:07;8.95;;;1.15;;
44120;SDS011;29783;52.504;13.478;2022-07-29T13:02:36;8.18;;;1.88;;
44120;SDS011;29783;52.504;13.478;2022-07-29T13:05:03;6.32;;;1.50;;
44120;SDS011;29783;52.504;13.478;2022-07-29T13:07:31;9.98;;;1.45;;
44120;SDS011;29783;52.504;13.478;2022-07-29T13:10:13;6.95;;;1.27;;
44120;SDS011;29783;52.504;13.478;2022-07-29T13:15:33;9.10;;;1.73;;
44120;SDS011;29783;52.504;13.478;2022-07-29T13:17:59;7.65;;;1.40;;
44120;SDS011;29783;52.504;13.478;2022-07-29T13:20:25;2.03;;;1.02;;
44120;SDS011;29783;52.504;13.478;2022-07-29T13:22:54;3.17;;;1.25;;
44120;SDS011;29783;52.504;13.478;2022-07-29T13:25:24;10.23;;;1.40;;
44120;SDS011;29783;52.504;13.478;2022-07-29T13:27:54;6.72;;;1.48;;
44120;SDS011;29783;52.504;13.478;2022-07-29T13:30:21;8.57;;;1.60;;
44120;SDS011;29783;52.504;13.478;2022-07-29T13:32:47;8.85;;;1.33;;
44120;SDS011;29783;52.504;13.478;2022-07-29T13:35:13;3.67;;;1.35;;
44120;SDS011;29783;52.504;13.478;2022-07-29T13:37:39;8.43;;;1.60;;
44120;SDS011;29783;52.504;13.478;2022-07-29T13:40:05;8.10;;;1.80;;
44120;SDS011;29783;52.504;13.478;2022-07-29T13:42:32;4.75;;;1.52;;
44120;SDS011;29783;52.504;13.478;2022-07-29T13:44:58;4.82;;;1.35;;
44120;SDS011;29783;52.504;13.478;2022-07-29T13:47:25;6.80;;;1.13;;
44120;SDS011;29783;52.504;13.478;2022-07-29T13:49:51;4.47;;;1.25;;
44120;SDS011;29783;52.504;13.478;2022-07-29T13:52:18;9.02;;;1.38;;
44120;SDS011;29783;52.504;13.478;2022-07-29T13:54:44;3.20;;;1.60;;
44120;SDS011;29783;52.504;13.478;2022-07-29T13:57:10;14.15;;;1.67;;
44120;SDS011;29783;52.504;13.478;2022-07-29T13:59:36;8.65;;;1.95;;
44120;SDS011;29783;52.504;13.478;2022-07-29T14:02:02;7.53;;;1.42;;
44120;SDS011;29783;52.504;13.478;2022-07-29T14:04:28;8.43;;;1.65;;
44120;SDS011;29783;52.504;13.478;2022-07-29T14:06:53;3.05;;;1.33;;
44120;SDS011;29783;52.504;13.478;2022-07-29T14:09:19;3.72;;;1.38;;
44120;SDS011;29783;52.504;13.478;2022-07-29T14:11:45;5.65;;;1.80;;
44120;SDS011;29783;52.504;13.478;2022-07-29T14:14:12;8.02;;;1.30;;
44120;SDS011;29783;52.504;13.478;2022-07-29T14:16:38;7.28;;;1.27;;
44120;SDS011;29783;52.504;13.478;2022-07-29T14:19:04;13.82;;;1.60;;
44120;SDS011;29783;52.504;13.478;2022-07-29T14:21:29;6.07;;;1.33;;
44120;SDS011;29783;52.504;13.478;2022-07-29T14:23:55;5.35;;;1.40;;
44120;SDS011;29783;52.504;13.478;2022-07-29T14:26:21;10.77;;;1.70;;
44120;SDS011;29783;52.504;13.478;2022-07-29T14:28:47;3.92;;;1.30;;
44120;SDS011;29783;52.504;13.478;2022-07-29T14:31:13;6.07;;;1.60;;
44120;SDS011;29783;52.504;13.478;2022-07-29T14:33:39;9.95;;;1.80;;
44120;SDS011;29783;52.504;13.478;2022-07-29T14:36:04;10.05;;;1.83;;
44120;SDS011;29783;52.504;13.478;2022-07-29T14:38:30;21.08;;;1.80;;
44120;SDS011;29783;52.504;13.478;2022-07-29T14:40:56;9.55;;;1.83;;
44120;SDS011;29783;52.504;13.478;2022-07-29T14:43:21;8.65;;;1.80;;
44120;SDS011;29783;52.504;13.478;2022-07-29T14:45:47;3.85;;;1.50;;
44120;SDS011;29783;52.504;13.478;2022-07-29T14:48:12;14.95;;;1.60;;
44120;SDS011;29783;52.504;13.478;2022-07-29T14:50:38;5.88;;;1.77;;
44120;SDS011;29783;52.504;13.478;2022-07-29T14:53:03;4.82;;;1.40;;
44120;SDS011;29783;52.504;13.478;2022-07-29T14:55:29;5.47;;;1.35;;
44120;SDS011;29783;52.504;13.478;2022-07-29T14:57:55;8.10;;;1.60;;
44120;SDS011;29783;52.504;13.478;2022-07-29T15:00:21;10.85;;;1.33;;
44120;SDS011;29783;52.504;13.478;2022-07-29T15:02:47;7.90;;;1.48;;
44120;SDS011;29783;52.504;13.478;2022-07-29T15:05:13;2.72;;;1.10;;
44120;SDS011;29783;52.504;13.478;2022-07-29T15:07:39;4.25;;;1.30;;
44120;SDS011;29783;52.504;13.478;2022-07-29T15:10:04;9.80;;;1.60;;
44120;SDS011;29783;52.504;13.478;2022-07-29T15:12:30;8.25;;;1.75;;
44120;SDS011;29783;52.504;13.478;2022-07-29T15:14:56;4.13;;;1.40;;
44120;SDS011;29783;52.504;13.478;2022-07-29T15:17:22;7.03;;;1.50;;
44120;SDS011;29783;52.504;13.478;2022-07-29T15:19:48;14.70;;;1.55;;
44120;SDS011;29783;52.504;13.478;2022-07-29T15:22:13;4.40;;;1.33;;
44120;SDS011;29783;52.504;13.478;2022-07-29T15:24:39;6.03;;;1.35;;
44120;SDS011;29783;52.504;13.478;2022-07-29T15:27:04;10.05;;;1.48;;
44120;SDS011;29783;52.504;13.478;2022-07-29T15:29:30;10.20;;;1.35;;
44120;SDS011;29783;52.504;13.478;2022-07-29T15:31:56;6.72;;;1.65;;
44120;SDS011;29783;52.504;13.478;2022-07-29T15:34:21;6.82;;;1.70;;
44120;SDS011;29783;52.504;13.478;2022-07-29T15:36:48;8.48;;;1.85;;
44120;SDS011;29783;52.504;13.478;2022-07-29T15:39:15;4.18;;;1.60;;
44120;SDS011;29783;52.504;13.478;2022-07-29T15:41:41;5.80;;;1.50;;